createdAt,value
2022-08-26T00:00:42.825Z,81.11
2022-08-26T00:01:44.136Z,81.81
2022-08-26T00:02:43.095Z,81.55
2022-08-26T00:03:43.278Z,81.24
2022-08-26T00:04:43.354Z,81.55
2022-08-26T00:05:43.534Z,81.65
2022-08-26T00:06:46.145Z,81.74
2022-08-26T00:07:43.797Z,81.45
2022-08-26T00:08:43.914Z,81.95
2022-08-26T00:09:47.321Z,82.15
2022-08-26T00:10:44.229Z,82.15
2022-08-26T00:11:44.368Z,82.35
2022-08-26T00:12:44.486Z,82.55
2022-08-26T00:13:47.903Z,82.15
2022-08-26T00:14:45.785Z,82.15
2022-08-26T00:15:44.937Z,82.05
2022-08-26T00:16:48.116Z,82.29
2022-08-26T00:17:45.124Z,82.59
2022-08-26T00:18:45.257Z,83.09
2022-08-26T00:19:45.397Z,83.09
2022-08-26T00:20:45.557Z,83.09
2022-08-26T00:21:45.714Z,83.09
2022-08-26T00:22:45.890Z,83.19
2022-08-26T00:23:46.018Z,82.79
2022-08-26T00:24:47.841Z,83.39
2022-08-26T00:25:46.264Z,83.09
2022-08-26T00:26:46.464Z,83.39
2022-08-26T00:27:46.598Z,83.19
2022-08-26T00:28:46.718Z,83.59
2022-08-26T00:29:46.847Z,83.49
2022-08-26T00:30:46.945Z,83.79
2022-08-26T00:31:47.124Z,83.79
2022-08-26T00:32:47.316Z,83.93
2022-08-26T00:33:47.307Z,84.23
2022-08-26T00:34:47.445Z,84.63
2022-08-26T00:35:47.625Z,84.63
2022-08-26T00:36:47.729Z,84.53
2022-08-26T00:37:47.849Z,84.03
2022-08-26T00:38:47.945Z,84.03
2022-08-26T00:39:48.084Z,83.93
2022-08-26T00:40:48.291Z,84.03
2022-08-26T00:41:48.347Z,83.83
2022-08-26T00:42:48.569Z,83.49
2022-08-26T00:43:48.594Z,83.19
2022-08-26T00:44:48.755Z,82.89
2022-08-26T00:45:48.856Z,82.79
2022-08-26T00:46:49.010Z,82.99
2022-08-26T00:47:49.214Z,83.29
2022-08-26T00:48:49.433Z,83.43
2022-08-26T00:49:49.447Z,83.29
2022-08-26T00:50:49.575Z,83.09
2022-08-26T00:51:49.759Z,82.69
2022-08-26T00:52:49.868Z,82.49
2022-08-26T00:53:49.968Z,82.59
2022-08-26T00:54:50.128Z,82.99
2022-08-26T00:55:50.256Z,83.23
2022-08-26T00:56:50.426Z,83.53
2022-08-26T00:57:50.523Z,83.23
2022-08-26T00:58:50.655Z,83.13
2022-08-26T00:59:50.820Z,83.23
2022-08-26T01:00:50.955Z,83.13
2022-08-26T01:01:51.115Z,82.73
2022-08-26T01:02:51.279Z,82.53
2022-08-26T01:03:51.387Z,82.73
2022-08-26T01:04:54.262Z,83.03
2022-08-26T01:05:51.697Z,83.43
2022-08-26T01:06:51.848Z,83.83
2022-08-26T01:07:51.988Z,84.27
2022-08-26T01:08:52.117Z,83.97
2022-08-26T01:09:52.270Z,83.77
2022-08-26T01:10:52.364Z,83.47
2022-08-26T01:11:52.468Z,83.67
2022-08-26T01:12:52.598Z,83.67
2022-08-26T01:13:52.746Z,83.87
2022-08-26T01:14:52.852Z,84.27
2022-08-26T01:15:52.957Z,84.07
2022-08-26T01:16:53.179Z,83.97
2022-08-26T01:17:53.258Z,83.97
2022-08-26T01:18:53.357Z,84.17
2022-08-26T01:19:53.465Z,83.97
2022-08-26T01:20:53.606Z,83.97
2022-08-26T01:21:53.790Z,84.07
2022-08-26T01:22:53.950Z,83.97
2022-08-26T01:23:57.631Z,84.07
2022-08-26T01:24:54.239Z,83.97
2022-08-26T01:25:54.327Z,84.07
2022-08-26T01:26:54.498Z,84.07
2022-08-26T01:27:54.586Z,84.07
2022-08-26T01:28:54.679Z,84.41
2022-08-26T01:29:54.821Z,84.61
2022-08-26T01:30:54.977Z,84.91
2022-08-26T01:31:55.113Z,85.11
2022-08-26T01:32:55.198Z,85.31
2022-08-26T01:33:55.314Z,85.41
2022-08-26T01:34:55.508Z,85.46
2022-08-26T01:35:55.628Z,85.66
2022-08-26T01:36:55.815Z,85.66
2022-08-26T01:37:55.888Z,85.86
2022-08-26T01:38:56.028Z,85.75
2022-08-26T01:39:56.214Z,86.06
2022-08-26T01:40:56.327Z,86.06
2022-08-26T01:41:56.439Z,86.16
2022-08-26T01:42:56.585Z,86.26
2022-08-26T01:43:56.990Z,86.36
2022-08-26T01:44:56.888Z,86.36
2022-08-26T01:45:57.994Z,86.66
2022-08-26T01:46:57.890Z,87.10
2022-08-26T01:47:57.426Z,87.01
2022-08-26T01:48:57.408Z,87.10
2022-08-26T01:49:57.525Z,87.01
2022-08-26T01:50:57.678Z,87.01
2022-08-26T01:51:57.779Z,87.01
2022-08-26T01:52:57.897Z,86.90
2022-08-26T01:53:58.058Z,86.80
2022-08-26T01:54:58.238Z,86.80
2022-08-26T01:56:05.396Z,87.01
2022-08-26T01:56:58.478Z,87.10
2022-08-26T01:57:58.538Z,87.10
2022-08-26T01:58:58.706Z,87.10
2022-08-26T01:59:58.850Z,87.10
2022-08-26T02:00:59.041Z,87.21
2022-08-26T02:01:59.078Z,87.04
2022-08-26T02:02:59.387Z,87.15
2022-08-26T02:03:59.383Z,87.45
2022-08-26T02:04:59.634Z,87.65
2022-08-26T02:05:59.665Z,88.05
2022-08-26T02:06:59.820Z,87.95
2022-08-26T02:07:59.947Z,88.05
2022-08-26T02:09:00.034Z,88.15
2022-08-26T02:10:00.186Z,88.09
2022-08-26T02:11:00.315Z,88.59
2022-08-26T02:12:00.509Z,88.49
2022-08-26T02:13:00.705Z,88.29
2022-08-26T02:14:00.724Z,88.19
2022-08-26T02:15:00.877Z,88.79
2022-08-26T02:16:01.018Z,89.10
2022-08-26T02:17:01.104Z,88.45
2022-08-26T02:18:01.207Z,88.15
2022-08-26T02:19:01.344Z,88.25
2022-08-26T02:20:01.497Z,88.45
2022-08-26T02:21:01.623Z,88.45
2022-08-26T02:22:01.756Z,88.15
2022-08-26T02:23:01.925Z,88.15
2022-08-26T02:24:02.106Z,88.85
2022-08-26T02:25:02.377Z,89.06
2022-08-26T02:26:02.355Z,89.15
2022-08-26T02:27:02.498Z,88.85
2022-08-26T02:28:02.626Z,88.65
2022-08-26T02:29:02.768Z,88.85
2022-08-26T02:30:02.895Z,88.65
2022-08-26T02:31:03.023Z,88.85
2022-08-26T02:32:03.118Z,88.85
2022-08-26T02:33:05.257Z,88.85
2022-08-26T02:34:03.418Z,88.95
2022-08-26T02:35:03.504Z,89.36
2022-08-26T02:36:03.665Z,89.56
2022-08-26T02:37:03.766Z,89.76
2022-08-26T02:38:03.862Z,89.76
2022-08-26T02:39:05.085Z,90.06
2022-08-26T02:40:04.175Z,90.46
2022-08-26T02:41:04.259Z,90.66
2022-08-26T02:42:04.402Z,90.81
2022-08-26T02:43:04.519Z,90.81
2022-08-26T02:44:04.693Z,90.91
2022-08-26T02:45:04.835Z,90.91
2022-08-26T02:46:04.988Z,91.01
2022-08-26T02:47:05.250Z,91.01
2022-08-26T02:48:05.335Z,91.01
2022-08-26T02:49:05.474Z,91.01
2022-08-26T02:50:05.636Z,91.21
2022-08-26T02:51:05.704Z,91.41
2022-08-26T02:52:05.836Z,91.47
2022-08-26T02:53:06.031Z,91.82
2022-08-26T02:54:06.076Z,91.82
2022-08-26T02:55:06.237Z,91.97
2022-08-26T02:56:06.315Z,91.97
2022-08-26T02:57:06.476Z,91.97
2022-08-26T02:58:06.637Z,91.97
2022-08-26T02:59:08.704Z,92.27
2022-08-26T03:00:07.009Z,92.47
2022-08-26T03:01:07.076Z,92.77
2022-08-26T03:02:07.222Z,92.97
2022-08-26T03:03:07.442Z,92.97
2022-08-26T03:04:07.398Z,93.18
2022-08-26T03:05:07.538Z,93.48
2022-08-26T03:06:07.704Z,93.48
2022-08-26T03:07:07.813Z,93.68
2022-08-26T03:08:07.946Z,93.93
2022-08-26T03:09:08.026Z,93.73
2022-08-26T03:10:08.895Z,93.58
2022-08-26T03:11:08.273Z,93.48
2022-08-26T03:12:08.407Z,93.73
2022-08-26T03:13:08.654Z,93.82
2022-08-26T03:14:08.705Z,94.23
2022-08-26T03:15:17.831Z,94.33
2022-08-26T03:16:10.127Z,94.33
2022-08-26T03:17:09.564Z,94.63
2022-08-26T03:18:09.278Z,94.93
2022-08-26T03:19:09.434Z,95.23
2022-08-26T03:20:09.592Z,95.23
2022-08-26T03:21:09.707Z,95.43
2022-08-26T03:22:10.174Z,95.33
2022-08-26T03:23:10.107Z,95.33
2022-08-26T03:24:10.087Z,95.43
2022-08-26T03:25:10.270Z,95.73
2022-08-26T03:26:10.982Z,95.84
2022-08-26T03:27:10.515Z,96.14
2022-08-26T03:28:10.649Z,96.28
2022-08-26T03:29:10.808Z,96.59
2022-08-26T03:30:11.720Z,96.69
2022-08-26T03:31:11.127Z,96.89
2022-08-26T03:32:11.197Z,96.78
2022-08-26T03:33:11.290Z,97.09
2022-08-26T03:34:11.456Z,97.09
2022-08-26T03:35:11.480Z,97.19
2022-08-26T03:36:11.632Z,97.29
2022-08-26T03:37:11.806Z,97.29
2022-08-26T03:38:11.971Z,97.29
2022-08-26T03:39:12.116Z,97.19
2022-08-26T03:40:12.292Z,97.29
2022-08-26T03:41:12.391Z,97.19
2022-08-26T03:42:12.496Z,97.19
2022-08-26T03:43:12.586Z,97.19
2022-08-26T03:44:12.727Z,97.39
2022-08-26T03:45:12.850Z,97.29
2022-08-26T03:46:12.989Z,97.39
2022-08-26T03:47:13.105Z,97.49
2022-08-26T03:48:13.198Z,97.69
2022-08-26T03:49:13.399Z,97.89
2022-08-26T03:50:13.497Z,98.19
2022-08-26T03:51:13.613Z,98.30
2022-08-26T03:52:13.774Z,98.54
2022-08-26T03:53:13.866Z,98.54
2022-08-26T03:54:13.993Z,98.94
2022-08-26T03:55:14.117Z,99.15
2022-08-26T03:56:14.267Z,99.35
2022-08-26T03:57:14.378Z,99.75
2022-08-26T03:58:15.478Z,99.85
2022-08-26T03:59:14.716Z,99.65
2022-08-26T04:00:14.799Z,99.55
2022-08-26T04:01:16.161Z,99.55
2022-08-26T04:02:15.100Z,99.75
2022-08-26T04:03:18.614Z,99.85
2022-08-26T04:04:15.454Z,99.95
2022-08-26T04:05:15.406Z,99.99
2022-08-26T04:06:15.567Z,99.99
2022-08-26T04:07:15.655Z,99.99
2022-08-26T04:08:16.544Z,99.99
2022-08-26T04:09:15.926Z,99.99
2022-08-26T04:10:16.048Z,99.99
2022-08-26T04:11:16.208Z,99.99
2022-08-26T04:12:16.317Z,99.99
2022-08-26T04:13:16.436Z,99.99
2022-08-26T04:14:17.511Z,99.99
2022-08-26T04:15:16.695Z,99.99
2022-08-26T04:16:16.924Z,99.99
2022-08-26T04:17:16.969Z,99.99
2022-08-26T04:18:17.189Z,99.99
2022-08-26T04:19:17.217Z,99.99
2022-08-26T04:20:17.303Z,99.99
2022-08-26T04:21:17.655Z,99.99
2022-08-26T04:22:24.107Z,99.99
2022-08-26T04:23:18.685Z,99.99
2022-08-26T04:24:17.855Z,99.99
2022-08-26T04:25:18.015Z,99.99
2022-08-26T04:26:18.165Z,99.99
2022-08-26T04:27:18.297Z,99.99
2022-08-26T04:28:18.424Z,99.99
2022-08-26T04:29:18.559Z,99.99
2022-08-26T04:30:18.697Z,99.99
2022-08-26T04:31:18.929Z,99.99
2022-08-26T04:32:19.017Z,99.99
2022-08-26T04:33:19.113Z,99.99
2022-08-26T04:34:20.216Z,99.99
2022-08-26T04:35:25.415Z,99.99
2022-08-26T04:36:20.489Z,99.99
2022-08-26T04:37:19.634Z,99.99
2022-08-26T04:38:19.745Z,99.99
2022-08-26T04:39:19.865Z,99.99
2022-08-26T04:40:20.031Z,99.99
2022-08-26T04:41:20.168Z,99.99
2022-08-26T04:42:26.038Z,99.99
2022-08-26T04:43:21.366Z,99.99
2022-08-26T04:44:20.519Z,99.99
2022-08-26T04:45:22.561Z,99.99
2022-08-26T04:46:20.808Z,99.99
2022-08-26T04:47:20.865Z,99.99
2022-08-26T04:48:21.008Z,99.99
2022-08-26T04:49:21.156Z,99.99
2022-08-26T04:50:21.288Z,99.99
2022-08-26T04:51:21.396Z,99.99
2022-08-26T04:52:21.529Z,99.99
2022-08-26T04:53:21.637Z,99.99
2022-08-26T04:54:21.793Z,99.99
2022-08-26T04:55:21.955Z,99.99
2022-08-26T04:56:23.066Z,99.99
2022-08-26T04:57:22.208Z,99.99
2022-08-26T04:58:23.066Z,99.99
2022-08-26T04:59:23.267Z,99.99
2022-08-26T05:00:22.548Z,99.99
2022-08-26T05:01:22.695Z,99.99
2022-08-26T05:02:22.779Z,99.99
2022-08-26T05:03:22.948Z,99.99
2022-08-26T05:04:23.084Z,99.99
2022-08-26T05:05:23.201Z,99.99
2022-08-26T05:06:23.337Z,99.99
2022-08-26T05:07:23.478Z,99.99
2022-08-26T05:08:23.617Z,99.99
2022-08-26T05:09:23.736Z,99.99
2022-08-26T05:10:23.865Z,99.99
2022-08-26T05:11:23.998Z,99.99
2022-08-26T05:12:24.148Z,99.99
2022-08-26T05:13:24.256Z,99.99
2022-08-26T05:14:24.431Z,99.99
2022-08-26T05:15:24.543Z,99.99
2022-08-26T05:16:24.715Z,99.99
2022-08-26T05:17:24.794Z,99.99
2022-08-26T05:18:24.878Z,99.99
2022-08-26T05:19:25.000Z,99.99
2022-08-26T05:20:26.280Z,99.99
2022-08-26T05:21:25.273Z,99.99
2022-08-26T05:22:25.458Z,99.87
2022-08-26T05:23:25.541Z,99.68
2022-08-26T05:24:25.685Z,99.77
2022-08-26T05:25:25.779Z,99.98
2022-08-26T05:26:25.918Z,99.87
2022-08-26T05:27:26.028Z,99.98
2022-08-26T05:28:26.178Z,99.87
2022-08-26T05:29:26.266Z,99.68
2022-08-26T05:30:28.372Z,99.68
2022-08-26T05:31:26.571Z,99.68
2022-08-26T05:32:26.719Z,99.57
2022-08-26T05:33:26.820Z,99.13
2022-08-26T05:34:30.243Z,98.82
2022-08-26T05:35:27.056Z,98.43
2022-08-26T05:36:27.222Z,98.32
2022-08-26T05:37:27.370Z,98.22
2022-08-26T05:38:30.454Z,98.18
2022-08-26T05:39:27.558Z,98.22
2022-08-26T05:40:27.708Z,98.32
2022-08-26T05:41:28.015Z,98.08
2022-08-26T05:42:28.989Z,97.97
2022-08-26T05:43:28.124Z,97.88
2022-08-26T05:44:28.248Z,97.78
2022-08-26T05:45:28.437Z,97.38
2022-08-26T05:46:28.620Z,97.28
2022-08-26T05:47:28.618Z,97.17
2022-08-26T05:48:28.756Z,96.88
2022-08-26T05:49:28.876Z,96.83
2022-08-26T05:50:28.989Z,96.73
2022-08-26T05:51:30.432Z,96.97
2022-08-26T05:52:29.252Z,97.17
2022-08-26T05:53:29.389Z,97.28
2022-08-26T05:54:29.502Z,97.23
2022-08-26T05:55:29.606Z,97.13
2022-08-26T05:56:29.736Z,96.93
2022-08-26T05:57:29.885Z,96.83
2022-08-26T05:58:29.982Z,96.73
2022-08-26T05:59:30.197Z,96.53
2022-08-26T06:00:30.225Z,96.23
2022-08-26T06:01:30.414Z,96.23
2022-08-26T06:02:30.533Z,96.23
2022-08-26T06:03:30.607Z,96.23
2022-08-26T06:04:30.746Z,96.13
2022-08-26T06:05:33.295Z,95.93
2022-08-26T06:06:31.007Z,95.93
2022-08-26T06:07:31.120Z,95.93
2022-08-26T06:08:31.277Z,95.68
2022-08-26T06:09:31.445Z,95.48
2022-08-26T06:10:32.939Z,95.48
2022-08-26T06:11:31.657Z,95.58
2022-08-26T06:12:31.747Z,95.48
2022-08-26T06:13:32.154Z,95.28
2022-08-26T06:14:31.997Z,95.18
2022-08-26T06:15:32.179Z,95.08
2022-08-26T06:16:32.254Z,94.88
2022-08-26T06:17:32.420Z,94.68
2022-08-26T06:18:32.546Z,94.48
2022-08-26T06:19:32.928Z,94.28
2022-08-26T06:20:32.836Z,94.28
2022-08-26T06:21:32.960Z,94.38
2022-08-26T06:22:33.066Z,94.58
2022-08-26T06:23:33.174Z,94.38
2022-08-26T06:24:33.309Z,94.13
2022-08-26T06:25:33.436Z,94.04
2022-08-26T06:26:33.576Z,94.13
2022-08-26T06:27:33.747Z,94.04
2022-08-26T06:28:33.829Z,93.84
2022-08-26T06:29:33.969Z,94.34
2022-08-26T06:30:34.100Z,94.23
2022-08-26T06:31:34.373Z,94.34
2022-08-26T06:32:34.369Z,94.13
2022-08-26T06:33:34.533Z,94.04
2022-08-26T06:34:34.636Z,94.04
2022-08-26T06:35:34.777Z,93.84
2022-08-26T06:36:34.909Z,93.93
2022-08-26T06:37:35.310Z,93.63
2022-08-26T06:38:35.208Z,93.33
2022-08-26T06:39:35.558Z,93.19
2022-08-26T06:40:36.451Z,93.09
2022-08-26T06:41:38.111Z,93.19
2022-08-26T06:42:35.657Z,93.19
2022-08-26T06:43:35.778Z,93.09
2022-08-26T06:44:35.877Z,92.79
2022-08-26T06:45:36.009Z,92.69
2022-08-26T06:46:36.204Z,92.39
2022-08-26T06:47:36.294Z,92.29
2022-08-26T06:48:36.366Z,92.19
2022-08-26T06:49:36.517Z,92.39
2022-08-26T06:50:36.619Z,92.09
2022-08-26T06:51:36.800Z,92.09
2022-08-26T06:52:36.890Z,92.09
2022-08-26T06:53:36.989Z,92.09
2022-08-26T06:54:37.147Z,92.19
2022-08-26T06:55:37.280Z,92.19
2022-08-26T06:56:37.378Z,92.29
2022-08-26T06:57:37.681Z,92.09
2022-08-26T06:58:37.631Z,91.89
2022-08-26T06:59:37.787Z,91.85
2022-08-26T07:00:37.878Z,91.75
2022-08-26T07:01:38.063Z,91.45
2022-08-26T07:02:38.174Z,91.45
2022-08-26T07:03:39.573Z,91.25
2022-08-26T07:04:38.402Z,91.25
2022-08-26T07:05:38.488Z,91.15
2022-08-26T07:06:39.038Z,91.05
2022-08-26T07:07:38.717Z,90.95
2022-08-26T07:08:38.851Z,90.84
2022-08-26T07:09:38.998Z,90.55
2022-08-26T07:10:39.108Z,90.75
2022-08-26T07:11:39.269Z,90.65
2022-08-26T07:12:39.387Z,90.65
2022-08-26T07:13:39.540Z,90.61
2022-08-26T07:14:39.747Z,90.41
2022-08-26T07:15:39.921Z,90.11
2022-08-26T07:16:39.878Z,90.00
2022-08-26T07:17:41.992Z,90.00
2022-08-26T07:18:40.141Z,89.81
2022-08-26T07:19:40.276Z,89.70
2022-08-26T07:20:40.402Z,89.66
2022-08-26T07:21:40.545Z,89.66
2022-08-26T07:22:40.660Z,89.47
2022-08-26T07:23:40.769Z,89.26
2022-08-26T07:24:40.930Z,89.36
2022-08-26T07:25:41.035Z,89.11
2022-08-26T07:26:42.852Z,89.51
2022-08-26T07:27:41.265Z,89.61
2022-08-26T07:28:41.370Z,89.40
2022-08-26T07:29:41.543Z,89.26
2022-08-26T07:30:41.716Z,89.06
2022-08-26T07:31:42.798Z,88.76
2022-08-26T07:32:41.947Z,89.20
2022-08-26T07:33:42.114Z,89.61
2022-08-26T07:34:42.269Z,89.61
2022-08-26T07:35:42.422Z,89.61
2022-08-26T07:36:42.523Z,89.90
2022-08-26T07:37:42.623Z,89.90
2022-08-26T07:38:42.742Z,89.56
2022-08-26T07:39:43.330Z,89.26
2022-08-26T07:40:42.939Z,89.26
2022-08-26T07:41:43.060Z,89.06
2022-08-26T07:42:43.203Z,88.76
2022-08-26T07:43:43.343Z,88.67
2022-08-26T07:44:43.491Z,88.67
2022-08-26T07:45:43.684Z,89.06
2022-08-26T07:46:44.145Z,89.16
2022-08-26T07:47:43.816Z,89.16
2022-08-26T07:48:46.071Z,88.76
2022-08-26T07:49:44.181Z,88.56
2022-08-26T07:50:49.965Z,88.62
2022-08-26T07:51:45.319Z,88.32
2022-08-26T07:52:44.474Z,88.22
2022-08-26T07:53:44.613Z,88.32
2022-08-26T07:54:44.732Z,88.22
2022-08-26T07:55:44.863Z,88.02
2022-08-26T07:56:45.021Z,87.92
2022-08-26T07:57:52.184Z,88.12
2022-08-26T07:58:48.988Z,88.12
2022-08-26T07:59:46.353Z,88.12
2022-08-26T08:00:45.484Z,88.12
2022-08-26T08:01:45.679Z,88.32
2022-08-26T08:02:45.734Z,88.67
2022-08-26T08:03:45.847Z,88.76
2022-08-26T08:04:46.105Z,88.86
2022-08-26T08:05:46.403Z,89.06
2022-08-26T08:06:46.234Z,89.16
2022-08-26T08:07:46.388Z,89.06
2022-08-26T08:08:46.493Z,89.16
2022-08-26T08:09:46.605Z,89.16
2022-08-26T08:10:48.788Z,89.20
2022-08-26T08:11:46.882Z,89.31
2022-08-26T08:12:46.985Z,89.51
2022-08-26T08:13:47.114Z,89.16
2022-08-26T08:14:47.234Z,88.96
2022-08-26T08:15:47.387Z,88.67
2022-08-26T08:16:47.619Z,88.76
2022-08-26T08:17:47.598Z,88.62
2022-08-26T08:18:47.721Z,88.42
2022-08-26T08:19:47.854Z,88.22
2022-08-26T08:21:04.796Z,88.12
2022-08-26T08:21:49.136Z,88.02
2022-08-26T08:22:48.254Z,87.73
2022-08-26T08:23:49.155Z,87.62
2022-08-26T08:24:49.889Z,87.62
2022-08-26T08:25:48.644Z,87.87
2022-08-26T08:26:48.750Z,87.82
2022-08-26T08:27:48.894Z,87.82
2022-08-26T08:28:49.016Z,87.42
2022-08-26T08:29:49.168Z,87.42
2022-08-26T08:30:49.348Z,87.52
2022-08-26T08:31:58.309Z,87.12
2022-08-26T08:32:50.524Z,87.12
2022-08-26T08:33:49.616Z,87.62
2022-08-26T08:34:49.739Z,88.17
2022-08-26T08:35:49.875Z,88.02
2022-08-26T08:36:50.016Z,87.62
2022-08-26T08:37:50.197Z,87.62
2022-08-26T08:38:50.318Z,87.52
2022-08-26T08:39:50.479Z,87.62
2022-08-26T08:40:50.521Z,87.62
2022-08-26T08:41:50.657Z,87.42
2022-08-26T08:42:53.758Z,87.62
2022-08-26T08:43:50.864Z,87.62
2022-08-26T08:44:52.020Z,87.32
2022-08-26T08:45:51.157Z,87.32
2022-08-26T08:46:51.238Z,87.42
2022-08-26T08:47:51.365Z,87.42
2022-08-26T08:48:51.498Z,87.32
2022-08-26T08:49:51.624Z,87.12
2022-08-26T08:50:51.726Z,86.79
2022-08-26T08:51:51.839Z,86.68
2022-08-26T08:52:51.937Z,86.38
2022-08-26T08:53:54.738Z,86.58
2022-08-26T08:54:52.206Z,86.93
2022-08-26T08:55:52.369Z,87.32
2022-08-26T08:56:52.613Z,87.42
2022-08-26T08:57:53.822Z,87.62
2022-08-26T08:58:52.719Z,87.23
2022-08-26T08:59:52.828Z,87.42
2022-08-26T09:00:52.937Z,87.62
2022-08-26T09:01:53.973Z,87.42
2022-08-26T09:02:53.159Z,87.28
2022-08-26T09:03:53.307Z,86.98
2022-08-26T09:04:53.426Z,86.68
2022-08-26T09:05:53.578Z,86.68
2022-08-26T09:06:53.739Z,86.29
2022-08-26T09:07:53.819Z,86.29
2022-08-26T09:08:53.938Z,86.29
2022-08-26T09:09:54.083Z,86.29
2022-08-26T09:10:54.216Z,86.15
2022-08-26T09:11:54.380Z,86.04
2022-08-26T09:12:54.471Z,86.04
2022-08-26T09:13:54.614Z,86.49
2022-08-26T09:14:54.756Z,86.38
2022-08-26T09:15:54.878Z,86.19
2022-08-26T09:16:55.053Z,86.19
2022-08-26T09:17:55.127Z,85.99
2022-08-26T09:18:55.260Z,86.08
2022-08-26T09:19:55.377Z,86.08
2022-08-26T09:20:55.525Z,86.08
2022-08-26T09:21:55.659Z,86.04
2022-08-26T09:22:55.750Z,85.74
2022-08-26T09:23:56.662Z,85.94
2022-08-26T09:24:56.009Z,85.64
2022-08-26T09:25:56.181Z,85.25
2022-08-26T09:26:56.241Z,84.91
2022-08-26T09:27:56.408Z,85.14
2022-08-26T09:28:56.526Z,85.11
2022-08-26T09:29:56.610Z,84.81
2022-08-26T09:30:56.875Z,84.70
2022-08-26T09:31:56.857Z,84.07
2022-08-26T09:32:57.051Z,83.57
2022-08-26T09:33:57.166Z,83.47
2022-08-26T09:34:57.259Z,83.37
2022-08-26T09:35:57.377Z,83.03
2022-08-26T09:36:57.528Z,82.50
2022-08-26T09:37:57.680Z,82.20
2022-08-26T09:38:57.770Z,81.80
2022-08-26T09:39:57.960Z,81.70
2022-08-26T09:40:59.405Z,81.30
2022-08-26T09:41:58.151Z,81.30
2022-08-26T09:42:58.289Z,81.50
2022-08-26T09:43:58.410Z,81.90
2022-08-26T09:44:58.553Z,81.80
2022-08-26T09:45:59.828Z,81.46
2022-08-26T09:46:58.818Z,81.26
2022-08-26T09:48:01.354Z,81.26
2022-08-26T09:48:59.080Z,81.06
2022-08-26T09:49:59.209Z,80.77
2022-08-26T09:50:59.311Z,81.06
2022-08-26T09:51:59.458Z,81.01
2022-08-26T09:52:59.590Z,81.01
2022-08-26T09:53:59.678Z,80.87
2022-08-26T09:54:59.844Z,80.77
2022-08-26T09:55:59.932Z,80.87
2022-08-26T09:57:00.057Z,80.66
2022-08-26T09:58:07.745Z,80.33
2022-08-26T09:59:01.620Z,79.93
2022-08-26T10:00:00.700Z,79.73
2022-08-26T10:01:00.960Z,79.20
2022-08-26T10:03:00.813Z,78.94
2022-08-26T10:04:00.922Z,79.53
2022-08-26T10:05:09.193Z,79.63
2022-08-26T10:06:02.155Z,79.83
2022-08-26T10:07:01.257Z,79.63
2022-08-26T10:08:01.510Z,79.63
2022-08-26T10:09:03.607Z,80.17
2022-08-26T10:10:02.648Z,80.47
2022-08-26T10:11:01.816Z,80.03
2022-08-26T10:12:01.910Z,80.03
2022-08-26T10:13:02.102Z,80.03
2022-08-26T10:14:02.161Z,79.73
2022-08-26T10:15:02.349Z,79.39
2022-08-26T10:16:02.431Z,79.53
2022-08-26T10:17:02.650Z,79.63
2022-08-26T10:18:02.670Z,80.03
2022-08-26T10:19:02.806Z,79.93
2022-08-26T10:20:02.923Z,79.63
2022-08-26T10:21:03.030Z,79.93
2022-08-26T10:22:03.129Z,80.47
2022-08-26T10:23:03.336Z,80.57
2022-08-26T10:24:03.403Z,80.77
2022-08-26T10:25:03.828Z,80.33
2022-08-26T10:26:03.652Z,80.13
2022-08-26T10:27:03.779Z,79.73
2022-08-26T10:28:03.890Z,79.30
2022-08-26T10:29:04.027Z,79.30
2022-08-26T10:30:04.111Z,79.43
2022-08-26T10:31:04.262Z,79.53
2022-08-26T10:32:04.375Z,80.03
2022-08-26T10:33:04.484Z,79.93
2022-08-26T10:34:04.591Z,80.03
2022-08-26T10:35:04.750Z,79.50
2022-08-26T10:36:04.863Z,79.10
2022-08-26T10:37:13.711Z,78.80
2022-08-26T10:38:06.180Z,78.50
2022-08-26T10:39:05.232Z,77.97
2022-08-26T10:40:05.377Z,78.20
2022-08-26T10:41:09.882Z,78.50
2022-08-26T10:42:06.565Z,78.27
2022-08-26T10:43:11.179Z,78.06
2022-08-26T10:44:06.803Z,78.06
2022-08-26T10:45:05.964Z,77.77
2022-08-26T10:46:06.978Z,77.53
2022-08-26T10:47:06.191Z,77.33
2022-08-26T10:48:06.429Z,77.17
2022-08-26T10:49:06.650Z,77.77
2022-08-26T10:50:06.683Z,77.97
2022-08-26T10:51:06.671Z,77.87
2022-08-26T10:52:12.054Z,77.23
2022-08-26T10:53:08.757Z,76.90
2022-08-26T10:54:06.998Z,76.10
2022-08-26T10:55:07.145Z,76.01
2022-08-26T10:56:18.802Z,75.51
2022-08-26T10:57:09.669Z,75.51
2022-08-26T10:58:08.903Z,74.78
2022-08-26T10:59:10.370Z,74.58
2022-08-26T11:00:08.735Z,74.38
2022-08-26T11:01:10.139Z,74.29
2022-08-26T11:02:08.014Z,74.58
2022-08-26T11:03:21.736Z,74.58
2022-08-26T11:04:09.294Z,74.65
2022-08-26T11:05:08.374Z,73.99
2022-08-26T11:06:08.506Z,74.62
2022-08-26T11:07:08.643Z,74.78
2022-08-26T11:08:08.910Z,74.52
2022-08-26T11:09:08.854Z,75.01
2022-08-26T11:10:08.989Z,75.01
2022-08-26T11:11:09.156Z,75.45
2022-08-26T11:12:10.276Z,75.84
2022-08-26T11:13:09.502Z,76.34
2022-08-26T11:14:09.488Z,76.28
2022-08-26T11:15:09.644Z,76.25
2022-08-26T11:16:09.815Z,76.14
2022-08-26T11:17:09.917Z,75.84
2022-08-26T11:18:10.254Z,75.95
2022-08-26T11:19:10.205Z,75.95
2022-08-26T11:20:13.325Z,75.31
2022-08-26T11:21:10.408Z,75.08
2022-08-26T11:22:10.504Z,74.48
2022-08-26T11:23:10.625Z,74.19
2022-08-26T11:24:10.732Z,74.08
2022-08-26T11:25:11.403Z,73.53
2022-08-26T11:26:11.068Z,73.69
2022-08-26T11:27:11.122Z,73.49
2022-08-26T11:28:11.457Z,73.25
2022-08-26T11:29:14.520Z,72.63
2022-08-26T11:30:11.518Z,72.53
2022-08-26T11:31:11.670Z,71.70
2022-08-26T11:32:11.716Z,71.11
2022-08-26T11:33:11.885Z,71.41
2022-08-26T11:34:12.374Z,71.60
2022-08-26T11:35:12.165Z,71.50
2022-08-26T11:36:12.609Z,72.00
2022-08-26T11:37:12.452Z,71.80
2022-08-26T11:38:12.550Z,71.94
2022-08-26T11:39:12.630Z,72.03
2022-08-26T11:40:12.891Z,72.43
2022-08-26T11:41:12.899Z,72.66
2022-08-26T11:42:12.999Z,73.10
2022-08-26T11:43:13.123Z,73.29
2022-08-26T11:44:13.249Z,73.69
2022-08-26T11:45:13.356Z,73.39
2022-08-26T11:46:13.549Z,73.19
2022-08-26T11:47:14.038Z,73.06
2022-08-26T11:48:13.719Z,72.86
2022-08-26T11:49:13.851Z,72.76
2022-08-26T11:50:13.971Z,72.33
2022-08-26T11:51:14.070Z,72.23
2022-08-26T11:52:14.208Z,71.83
2022-08-26T11:53:14.347Z,72.03
2022-08-26T11:54:14.453Z,71.73
2022-08-26T11:55:14.607Z,71.34
2022-08-26T11:56:14.691Z,71.64
2022-08-26T11:57:14.812Z,71.34
2022-08-26T11:58:14.940Z,71.83
2022-08-26T11:59:15.087Z,71.73
2022-08-26T12:00:17.942Z,72.17
2022-08-26T12:01:17.064Z,72.47
2022-08-26T12:02:15.474Z,72.96
2022-08-26T12:03:15.640Z,72.76
2022-08-26T12:04:15.873Z,72.27
2022-08-26T12:05:15.889Z,72.27
2022-08-26T12:06:16.018Z,72.47
2022-08-26T12:07:16.127Z,72.03
2022-08-26T12:08:16.229Z,71.83
2022-08-26T12:09:16.383Z,72.03
2022-08-26T12:10:16.473Z,71.50
2022-08-26T12:11:16.620Z,71.20
2022-08-26T12:12:16.723Z,71.11
2022-08-26T12:13:16.890Z,70.51
2022-08-26T12:14:16.970Z,70.21
2022-08-26T12:15:17.135Z,70.61
2022-08-26T12:16:17.282Z,70.61
2022-08-26T12:17:17.330Z,70.81
2022-08-26T12:18:17.467Z,70.81
2022-08-26T12:19:17.638Z,70.91
2022-08-26T12:20:17.713Z,71.34
2022-08-26T12:21:17.863Z,72.50
2022-08-26T12:22:17.970Z,73.00
2022-08-26T12:23:18.141Z,73.29
2022-08-26T12:24:18.213Z,73.19
2022-08-26T12:25:18.372Z,73.72
2022-08-26T12:26:18.491Z,74.12
2022-08-26T12:27:18.617Z,73.99
2022-08-26T12:28:18.691Z,73.59
2022-08-26T12:29:26.443Z,73.29
2022-08-26T12:30:19.952Z,73.36
2022-08-26T12:31:19.128Z,72.96
2022-08-26T12:32:19.212Z,72.76
2022-08-26T12:33:22.195Z,72.66
2022-08-26T12:34:20.174Z,72.96
2022-08-26T12:35:19.615Z,72.76
2022-08-26T12:36:19.705Z,72.66
2022-08-26T12:37:19.811Z,72.86
2022-08-26T12:38:19.916Z,72.86
2022-08-26T12:39:20.064Z,72.96
2022-08-26T12:40:20.284Z,73.10
2022-08-26T12:41:20.319Z,73.69
2022-08-26T12:42:20.415Z,73.49
2022-08-26T12:43:20.540Z,74.02
2022-08-26T12:44:20.616Z,74.32
2022-08-26T12:45:20.781Z,74.62
2022-08-26T12:46:20.872Z,74.46
2022-08-26T12:47:21.871Z,74.62
2022-08-26T12:48:24.493Z,74.32
2022-08-26T12:49:21.243Z,74.42
2022-08-26T12:50:21.353Z,74.02
2022-08-26T12:51:21.486Z,73.89
2022-08-26T12:52:21.625Z,73.79
2022-08-26T12:53:21.784Z,73.69
2022-08-26T12:54:21.865Z,73.79
2022-08-26T12:55:22.005Z,73.59